createdAt,value
2017-10-13T15:08:48.227Z,97801.23
2017-10-13T16:01:38.174Z,97815.13
2017-10-13T16:04:05.192Z,97809.52
2017-10-13T16:06:32.231Z,97810.40
2017-10-13T16:08:59.596Z,97815.05
2017-10-13T16:11:26.622Z,97816.17
2017-10-13T16:13:53.619Z,97815.11
2017-10-13T16:16:20.653Z,97816.72
2017-10-13T16:18:47.736Z,97826.91
2017-10-13T16:21:14.700Z,97830.38
2017-10-13T16:23:41.900Z,97831.06
2017-10-13T16:26:08.879Z,97828.78
2017-10-13T16:28:35.906Z,97828.41
2017-10-13T16:31:02.957Z,97829.95
2017-10-13T16:33:29.991Z,97833.22
2017-10-13T16:35:56.970Z,97829.69
2017-10-13T16:38:24.035Z,97829.18
2017-10-13T16:40:51.002Z,97834.44
2017-10-13T16:43:18.041Z,97835.47
2017-10-13T16:45:45.311Z,97834.13
2017-10-13T16:48:12.289Z,97836.67
2017-10-13T16:50:39.287Z,97838.86
2017-10-13T16:53:06.437Z,97835.64
2017-10-13T16:55:33.605Z,97842.94
2017-10-13T16:58:00.870Z,97843.45
2017-10-13T17:00:27.904Z,97843.61
2017-10-13T17:02:54.890Z,97842.92
2017-10-13T17:05:21.957Z,97840.95
2017-10-13T17:07:49.315Z,97844.95
2017-10-13T17:10:16.383Z,97852.30
2017-10-13T17:51:53.778Z,97876.98
2017-10-13T17:54:21.281Z,97879.00
2017-10-13T18:34:19.923Z,97893.31
2017-10-13T18:36:47.391Z,97898.63
2017-10-13T18:39:14.811Z,97906.02
2017-10-13T18:41:42.695Z,97910.50
2017-10-13T18:44:10.128Z,97918.70
2017-10-13T18:46:37.545Z,97912.42
2017-10-13T18:49:05.004Z,97914.95
2017-10-13T18:51:32.447Z,97917.83
2017-10-13T18:53:59.986Z,97918.41
2017-10-13T18:56:27.889Z,97920.50
2017-10-13T18:58:55.318Z,97921.83
2017-10-13T19:01:22.784Z,97920.64
2017-10-13T19:03:50.251Z,97926.46
2017-10-13T19:06:17.668Z,97931.45
2017-10-13T19:08:45.076Z,97925.20
2017-10-13T19:11:12.540Z,97925.29
2017-10-13T19:13:39.962Z,97918.39
2017-10-13T19:16:07.443Z,97921.16
2017-10-13T19:18:34.919Z,97920.05
2017-10-13T19:21:02.347Z,97916.67
2017-10-13T19:23:29.763Z,97922.91
2017-10-13T19:25:57.338Z,97929.61
2017-10-13T19:28:24.798Z,97933.53
2017-10-13T19:30:52.306Z,97929.90
2017-10-13T19:33:19.768Z,97925.73
2017-10-13T19:35:47.195Z,97924.25
2017-10-13T19:38:14.697Z,97924.95
2017-10-13T19:40:42.295Z,97932.00
2017-10-13T19:43:09.728Z,97927.23
2017-10-13T19:45:37.899Z,97925.33
2017-10-13T19:48:05.605Z,97930.32
2017-10-13T19:50:33.210Z,97927.25
2017-10-13T19:53:00.629Z,97926.98
2017-10-13T19:55:28.403Z,97930.69
2017-10-13T19:57:55.897Z,97929.82
2017-10-13T20:00:23.410Z,97933.95
2017-10-13T20:02:50.987Z,97939.55
2017-10-13T20:05:18.486Z,97934.13
2017-10-13T20:07:45.993Z,97938.87
2017-10-13T20:10:13.852Z,97941.30
2017-10-13T20:12:41.378Z,97938.95
2017-10-13T20:15:08.818Z,97937.95
2017-10-13T20:17:36.423Z,97938.87
2017-10-13T20:20:03.848Z,97935.05
2017-10-13T20:22:31.362Z,97941.48
2017-10-13T20:24:59.411Z,97942.07
2017-10-13T20:27:26.850Z,97934.13
2017-10-13T20:29:54.418Z,97945.16
2017-10-13T20:32:21.906Z,97940.42
2017-10-13T20:34:49.318Z,97944.10
2017-10-13T20:37:17.259Z,97942.53
2017-10-13T20:39:44.780Z,97950.47
2017-10-13T20:42:12.210Z,97944.56
2017-10-13T20:44:39.740Z,97943.64
2017-10-13T20:47:07.227Z,97940.72
2017-10-13T20:49:34.710Z,97939.88
2017-10-13T20:52:02.155Z,97942.05
2017-10-13T20:54:29.642Z,97938.30
2017-10-13T20:56:57.057Z,97939.42
2017-10-13T20:59:24.516Z,97938.93
2017-10-13T21:01:52.100Z,97940.09
2017-10-13T21:04:19.523Z,97938.69
2017-10-13T21:06:46.949Z,97936.69
2017-10-13T21:09:14.419Z,97940.02
2017-10-13T21:11:41.851Z,97942.41
2017-10-13T21:14:09.264Z,97940.79
2017-10-13T21:16:36.723Z,97938.36
2017-10-13T21:19:04.138Z,97943.81
2017-10-13T21:21:31.561Z,97942.95
2017-10-13T21:23:59.395Z,97947.92
2017-10-13T21:26:26.841Z,97948.87
2017-10-13T21:28:54.338Z,97944.19
2017-10-13T21:31:21.806Z,97947.64
2017-10-13T21:33:49.365Z,97945.77
2017-10-13T21:36:18.219Z,97948.22
2017-10-13T21:38:46.130Z,97955.91
2017-10-13T21:41:13.555Z,97958.02
2017-10-13T21:43:40.976Z,97956.07
2017-10-13T21:46:08.540Z,97958.55
2017-10-13T21:48:35.971Z,97960.23
2017-10-13T21:51:03.409Z,97961.72
2017-10-13T21:53:30.895Z,97954.81
2017-10-13T21:55:58.322Z,97956.80
2017-10-13T21:58:26.016Z,97961.25
2017-10-13T22:00:53.490Z,97961.25
2017-10-13T22:03:20.917Z,97965.28
2017-10-13T22:05:48.395Z,97957.08
2017-10-13T22:08:15.902Z,97956.64
2017-10-13T22:10:43.349Z,97954.59
2017-10-13T22:13:10.786Z,97957.83
2017-10-13T22:15:38.458Z,97950.60
2017-10-13T22:18:06.100Z,97958.74
2017-10-13T22:20:33.530Z,97960.48
2017-10-13T22:23:01.437Z,97964.34
2017-10-13T22:25:28.858Z,97961.62
2017-10-13T22:27:56.280Z,97960.63
2017-10-13T22:30:23.834Z,97954.23
2017-10-13T22:32:51.251Z,97956.57
2017-10-13T22:35:18.869Z,97961.43
2017-10-13T22:37:46.332Z,97963.84
2017-10-13T22:40:13.747Z,97963.56
2017-10-13T22:42:41.176Z,97965.34
2017-10-13T22:45:09.057Z,97958.95
2017-10-13T22:47:36.480Z,97965.86
2017-10-13T22:50:03.907Z,97961.75
2017-10-13T22:52:31.371Z,97962.14
2017-10-13T22:54:58.803Z,97969.10
2017-10-13T22:57:26.369Z,97972.34
2017-10-13T22:59:53.820Z,97965.23
2017-10-13T23:02:21.254Z,97964.38
2017-10-13T23:04:48.684Z,97971.04
2017-10-13T23:07:16.328Z,97963.97
2017-10-13T23:09:43.754Z,97967.48
2017-10-13T23:12:11.179Z,97968.83
2017-10-13T23:14:38.657Z,97968.91
2017-10-13T23:17:06.071Z,97967.61
2017-10-13T23:19:33.597Z,97978.98
2017-10-13T23:22:01.104Z,97975.08
2017-10-13T23:24:28.523Z,97978.03
2017-10-13T23:26:55.972Z,97974.25
2017-10-13T23:29:24.088Z,97975.98
2017-10-13T23:31:51.522Z,97984.04
2017-10-13T23:34:18.949Z,97988.73
2017-10-13T23:36:46.802Z,97993.44
2017-10-13T23:39:14.221Z,97993.95
2017-10-13T23:41:41.641Z,98002.47
2017-10-13T23:44:09.470Z,97997.06
2017-10-13T23:46:36.888Z,98004.95
2017-10-13T23:49:04.313Z,98003.13
2017-10-13T23:51:31.772Z,98002.62
2017-10-13T23:53:59.336Z,98001.78
2017-10-13T23:56:26.767Z,98009.05
2017-10-13T23:58:54.259Z,98004.78
